createdAt,value
2022-11-21T01:34:10.568Z,7.64
2022-11-21T01:39:05.968Z,7.42
2022-11-21T01:43:58.566Z,7.70
2022-11-21T01:49:13.879Z,7.37
2022-11-21T01:54:17.361Z,7.60
2022-11-21T01:59:12.787Z,7.79
2022-11-21T02:04:06.390Z,7.34
2022-11-21T02:09:00.434Z,7.33
2022-11-21T02:13:52.434Z,7.34
2022-11-21T02:18:44.242Z,7.76
2022-11-21T02:24:00.514Z,7.50
2022-11-21T02:28:52.410Z,7.25
2022-11-21T02:33:44.006Z,7.28
2022-11-21T02:38:38.212Z,7.59
2022-11-21T02:43:34.097Z,7.15
2022-11-21T02:48:25.748Z,7.55
2022-11-21T02:53:18.938Z,7.62
2022-11-21T02:58:11.190Z,7.61
2022-11-21T03:03:03.157Z,7.61
2022-11-21T03:07:54.688Z,7.29
2022-11-21T03:12:46.457Z,7.58
2022-11-21T03:17:38.329Z,7.59
2022-11-21T03:22:29.908Z,7.62
2022-11-21T03:27:21.499Z,7.62
2022-11-21T03:32:13.083Z,7.58
2022-11-21T03:37:04.653Z,6.54
2022-11-21T03:41:56.444Z,7.68
2022-11-21T03:46:48.205Z,6.86
2022-11-21T03:51:40.283Z,7.60
2022-11-21T03:56:32.486Z,7.63
2022-11-21T04:01:24.327Z,7.44
2022-11-21T04:06:17.772Z,7.22
2022-11-21T04:11:09.958Z,7.21
2022-11-21T04:16:01.540Z,7.15
2022-11-21T04:21:05.313Z,7.49
2022-11-21T04:25:57.506Z,7.41
2022-11-21T04:30:50.391Z,7.01
2022-11-21T04:35:45.649Z,7.49
2022-11-21T04:40:37.272Z,7.34
2022-11-21T04:45:29.157Z,6.81
2022-11-21T04:50:20.933Z,7.39
2022-11-21T04:55:12.464Z,7.40
2022-11-21T05:00:04.825Z,7.11
2022-11-21T05:04:56.424Z,7.41
2022-11-21T05:09:47.986Z,7.32
2022-11-21T05:14:39.510Z,7.03
2022-11-21T05:19:31.012Z,7.54
2022-11-21T05:24:22.560Z,7.61
2022-11-21T05:29:14.130Z,7.58
2022-11-21T05:34:05.646Z,6.70
2022-11-21T05:38:57.276Z,7.41
2022-11-21T05:43:50.076Z,7.62
2022-11-21T05:48:42.184Z,7.55
2022-11-21T05:53:35.029Z,7.54
2022-11-21T05:58:26.619Z,7.38
2022-11-21T06:03:27.368Z,7.42
2022-11-21T06:08:19.362Z,7.24
2022-11-21T06:13:22.030Z,6.69
2022-11-21T06:18:13.729Z,6.05
2022-11-21T06:23:05.387Z,7.24
2022-11-21T06:27:59.696Z,7.54
2022-11-21T06:32:51.310Z,7.66
2022-11-21T06:37:42.845Z,7.65
2022-11-21T06:42:34.348Z,7.17
2022-11-21T06:47:25.965Z,7.43
2022-11-21T06:52:17.861Z,7.61
2022-11-21T06:57:09.425Z,7.56
2022-11-21T07:02:01.012Z,7.64
2022-11-21T07:06:52.612Z,7.54
2022-11-21T07:11:44.502Z,6.93
2022-11-21T07:16:36.191Z,7.53
2022-11-21T07:21:27.804Z,7.46
2022-11-21T07:26:19.382Z,7.43
2022-11-21T07:31:14.004Z,7.62
2022-11-21T07:36:06.024Z,7.36
2022-11-21T07:40:57.610Z,7.66
2022-11-21T07:45:49.123Z,7.47
2022-11-21T07:50:40.876Z,7.95
2022-11-21T07:55:39.055Z,7.79
2022-11-21T08:00:33.963Z,7.89
2022-11-21T08:05:25.551Z,7.81
2022-11-21T08:10:18.389Z,7.86
2022-11-21T08:15:10.643Z,7.43
2022-11-21T08:20:02.902Z,7.61
2022-11-21T08:24:54.713Z,7.81
2022-11-21T08:29:47.172Z,7.75
2022-11-21T08:34:38.813Z,7.73
2022-11-21T08:39:31.087Z,7.87
2022-11-21T08:44:22.715Z,7.93
2022-11-21T08:49:14.307Z,7.93
2022-11-21T08:54:05.912Z,7.95
2022-11-21T08:58:57.555Z,7.95
2022-11-21T09:03:49.293Z,7.85
2022-11-21T09:08:41.587Z,7.81
2022-11-21T09:13:34.797Z,7.95
2022-11-21T09:18:26.538Z,7.77
2022-11-21T09:23:18.054Z,8.71
2022-11-21T09:28:11.932Z,8.92
2022-11-21T09:33:06.565Z,9.19
2022-11-21T09:37:58.409Z,9.67
2022-11-21T09:43:13.648Z,9.55
2022-11-21T09:48:13.616Z,7.63
2022-11-21T09:53:16.790Z,9.78
2022-11-21T09:58:30.376Z,9.87
2022-11-21T10:03:25.884Z,9.80
2022-11-21T10:08:23.327Z,10.07
2022-11-21T10:13:37.308Z,10.31
2022-11-21T10:18:38.552Z,10.01
2022-11-21T10:23:46.195Z,10.50
2022-11-21T10:28:56.857Z,10.14
2022-11-21T10:33:52.117Z,10.32
2022-11-21T10:38:44.672Z,11.11
2022-11-21T10:44:02.673Z,10.79
2022-11-21T10:49:04.744Z,9.83
2022-11-21T10:54:30.126Z,10.46
2022-11-21T10:59:30.858Z,10.47
2022-11-21T11:04:33.571Z,10.48
2022-11-21T11:09:31.479Z,9.77
2022-11-21T11:14:32.971Z,10.32
2022-11-21T11:19:35.374Z,10.25
2022-11-21T11:24:31.439Z,10.45
2022-11-21T11:29:25.966Z,10.74
2022-11-21T11:34:18.491Z,10.76
2022-11-21T11:39:36.134Z,11.32
2022-11-21T11:44:54.839Z,11.62
2022-11-21T11:50:11.110Z,11.43
2022-11-21T11:55:07.913Z,11.84
2022-11-21T12:00:17.802Z,11.79
2022-11-21T12:05:17.713Z,11.06
2022-11-21T12:10:19.246Z,10.83
2022-11-21T12:15:59.935Z,11.00
2022-11-21T12:21:03.825Z,10.57
2022-11-21T12:26:17.907Z,10.52
2022-11-21T12:31:21.903Z,10.08
2022-11-21T12:36:24.758Z,9.97
2022-11-21T12:42:02.593Z,10.59
2022-11-21T12:47:13.412Z,10.58
2022-11-21T12:53:16.143Z,10.60
2022-11-21T12:58:26.937Z,10.69
2022-11-21T13:04:02.254Z,10.03
2022-11-21T13:08:57.292Z,9.57
2022-11-21T13:13:56.433Z,9.58
2022-11-21T13:18:50.507Z,9.39
2022-11-21T13:23:42.656Z,9.89
2022-11-21T13:28:35.413Z,8.19
2022-11-21T13:33:35.935Z,9.54
2022-11-21T13:38:27.653Z,8.23
2022-11-21T14:42:52.996Z,8.38
2022-11-21T14:54:23.864Z,7.98
2022-11-21T14:59:23.687Z,7.56
2022-11-21T15:21:07.000Z,6.84
2022-11-21T15:26:01.414Z,7.52
2022-11-21T15:31:15.933Z,7.44
2022-11-21T15:36:16.249Z,6.77
2022-11-21T15:41:10.808Z,7.41
2022-11-21T15:46:04.211Z,7.31
2022-11-21T15:50:58.894Z,6.96
2022-11-21T15:55:50.925Z,6.87
2022-11-21T16:00:42.525Z,7.26
2022-11-21T16:05:34.092Z,7.19
2022-11-21T16:10:27.957Z,7.25
2022-11-21T16:15:19.844Z,7.20
2022-11-21T16:20:11.483Z,7.14
2022-11-21T16:25:03.104Z,7.05
2022-11-21T16:29:54.580Z,7.08
2022-11-21T16:34:47.056Z,7.03
2022-11-21T16:39:38.745Z,6.99
2022-11-21T16:44:31.191Z,6.91
2022-11-21T16:49:24.370Z,6.97
2022-11-21T16:54:15.991Z,6.90
2022-11-21T16:59:07.569Z,6.70
2022-11-21T17:03:59.506Z,6.92
2022-11-21T17:08:51.121Z,6.83
2022-11-21T17:19:28.763Z,5.93
2022-11-21T17:24:20.805Z,6.90
2022-11-21T17:29:12.392Z,6.86
2022-11-21T17:34:04.048Z,6.79
2022-11-21T17:38:55.960Z,6.39
2022-11-21T17:43:48.770Z,6.85
2022-11-21T17:48:41.014Z,6.89
2022-11-21T17:53:34.402Z,6.40
2022-11-21T17:58:27.781Z,6.72
2022-11-21T18:03:19.301Z,5.78
2022-11-21T18:08:10.874Z,6.72
2022-11-21T18:13:02.565Z,6.53
2022-11-21T18:17:54.204Z,6.63
2022-11-21T18:22:48.097Z,6.81
2022-11-21T18:27:39.801Z,5.85
2022-11-21T18:32:32.163Z,6.50
2022-11-21T18:37:23.838Z,6.78
2022-11-21T18:42:15.419Z,6.46
2022-11-21T18:47:19.777Z,6.93
2022-11-21T18:52:12.230Z,6.92
2022-11-21T18:57:03.990Z,6.90
2022-11-21T19:01:55.576Z,6.53
2022-11-21T19:06:47.275Z,6.34
2022-11-21T19:11:38.901Z,6.84
2022-11-21T19:16:31.545Z,6.87
2022-11-21T19:21:23.308Z,6.81
2022-11-21T19:26:17.558Z,7.08
2022-11-21T19:31:14.967Z,7.09
2022-11-21T19:36:11.406Z,7.10
2022-11-21T19:41:16.098Z,6.88
2022-11-21T19:46:07.812Z,7.12
2022-11-21T19:51:01.149Z,7.07
2022-11-21T20:02:01.688Z,7.07
2022-11-21T20:06:55.882Z,7.26
2022-11-21T20:11:50.129Z,7.26
2022-11-21T20:16:48.538Z,6.94
2022-11-21T21:45:33.839Z,6.58
2022-11-21T21:56:57.246Z,7.17
2022-11-21T22:01:49.118Z,7.11
2022-11-21T22:06:40.918Z,7.03
2022-11-21T22:11:36.812Z,7.14
2022-11-21T22:16:29.398Z,6.68
2022-11-21T22:21:27.908Z,7.07
2022-11-21T22:26:19.886Z,7.18
2022-11-21T22:31:13.851Z,7.25
2022-11-21T22:36:08.657Z,7.27
2022-11-21T22:41:02.161Z,6.93
2022-11-21T22:45:53.991Z,7.21
2022-11-21T22:50:45.570Z,6.57
2022-11-21T22:55:37.259Z,7.09
2022-11-21T23:00:28.835Z,7.00
2022-11-21T23:05:20.538Z,6.98
2022-11-21T23:10:12.523Z,6.72
2022-11-21T23:15:04.435Z,6.69
2022-11-21T23:19:55.958Z,6.63
2022-11-21T23:24:47.524Z,5.57
2022-11-21T23:29:39.072Z,5.81
2022-11-21T23:34:30.620Z,6.46
2022-11-21T23:39:22.180Z,6.44
2022-11-21T23:44:13.772Z,6.44
2022-11-21T23:49:05.326Z,6.22
2022-11-21T23:53:56.926Z,6.47
2022-11-21T23:58:48.494Z,6.47
